Time;durP1;ratioP1;P1;durP2;ratioP2;P2;SDS_P1;SDS_P2;PMS_P1;PMS_P2;Temp;Humidity;BMP_temperature;BMP_pressure;BME280_temperature;BME280_humidity;BME280_pressure;Samples;Min_cycle;Max_cycle;Signal;HPM_P1;HPM_P2
2022/07/08 00:00:35;;;;;;;5.40;1.90;;;23.00;85.00;;;;;;5054291;28;20120;-71
2022/07/08 00:03:01;;;;;;;7.78;2.30;;;23.00;84.80;;;;;;5054528;28;20017;-71
2022/07/08 00:05:27;;;;;;;7.00;1.92;;;23.00;84.50;;;;;;5054029;28;20366;-72
2022/07/08 00:07:53;;;;;;;8.07;2.03;;;23.10;86.00;;;;;;5054348;28;20086;-70
2022/07/08 00:10:19;;;;;;;5.05;1.65;;;23.30;85.60;;;;;;5054225;28;20021;-72
2022/07/08 00:12:44;;;;;;;6.93;1.70;;;23.40;84.80;;;;;;5053894;28;20028;-70
2022/07/08 00:15:11;;;;;;;4.55;1.58;;;23.60;84.10;;;;;;5053836;28;20059;-71
2022/07/08 00:17:37;;;;;;;6.03;2.05;;;23.60;84.40;;;;;;5054035;28;20025;-71
2022/07/08 00:20:04;;;;;;;6.00;2.05;;;23.70;85.00;;;;;;5053981;28;20021;-71
2022/07/08 00:22:30;;;;;;;7.82;2.78;;;23.70;85.00;;;;;;5053849;28;20034;-71
2022/07/08 00:24:56;;;;;;;9.88;2.28;;;23.70;85.40;;;;;;5053481;28;20440;-70
2022/07/08 00:27:21;;;;;;;6.93;2.10;;;23.70;85.10;;;;;;5054211;28;20474;-71
2022/07/08 00:29:47;;;;;;;7.00;1.70;;;23.70;84.90;;;;;;5036043;28;20032;-71
2022/07/08 00:32:13;;;;;;;8.02;2.40;;;23.80;83.70;;;;;;5053854;28;20108;-71
2022/07/08 00:34:39;;;;;;;8.57;1.98;;;23.80;83.30;;;;;;5053749;28;20037;-72
2022/07/08 00:37:06;;;;;;;8.63;2.00;;;23.80;83.60;;;;;;5035575;28;20013;-71
2022/07/08 00:39:32;;;;;;;6.47;2.20;;;23.70;83.50;;;;;;5053787;28;20032;-70
2022/07/08 00:41:58;;;;;;;7.18;2.00;;;23.80;83.80;;;;;;5053774;28;20017;-72
2022/07/08 00:44:24;;;;;;;7.40;2.10;;;23.80;83.60;;;;;;5053341;28;20033;-71
2022/07/08 00:46:51;;;;;;;10.13;2.55;;;23.80;83.30;;;;;;5053677;28;20478;-70
2022/07/08 00:49:17;;;;;;;6.43;2.05;;;23.70;83.80;;;;;;5053003;28;20059;-73
2022/07/08 00:51:45;;;;;;;6.63;2.10;;;23.60;83.30;;;;;;5053567;28;20021;-74
2022/07/08 00:54:14;;;;;;;5.78;2.10;;;23.60;83.60;;;;;;5053632;28;20033;-72
2022/07/08 00:56:41;;;;;;;6.93;2.05;;;23.60;83.50;;;;;;5053704;28;20033;-71
2022/07/08 00:59:08;;;;;;;7.75;2.63;;;23.40;83.70;;;;;;5053443;28;20062;-72
2022/07/08 01:01:34;;;;;;;7.13;2.13;;;23.30;84.60;;;;;;5053128;28;20102;-70
2022/07/08 01:04:01;;;;;;;7.38;2.10;;;23.30;85.60;;;;;;5053151;28;20477;-70
2022/07/08 01:06:26;;;;;;;8.27;2.25;;;23.20;85.20;;;;;;5053250;28;20025;-71
2022/07/08 01:08:52;;;;;;;6.45;2.00;;;23.20;85.90;;;;;;5053334;28;20021;-71
2022/07/08 01:11:18;;;;;;;7.47;1.85;;;23.20;85.60;;;;;;5053249;28;20017;-73
2022/07/08 01:13:45;;;;;;;4.75;1.60;;;23.20;85.40;;;;;;5052924;28;20040;-72
2022/07/08 01:16:10;;;;;;;6.13;2.13;;;23.20;85.50;;;;;;5052765;28;20044;-73
2022/07/08 01:18:36;;;;;;;8.27;1.92;;;23.20;85.70;;;;;;5053096;28;20438;-72
2022/07/08 01:21:03;;;;;;;3.33;1.73;;;23.10;85.70;;;;;;5053022;28;20044;-72
2022/07/08 01:23:28;;;;;;;4.88;1.90;;;23.10;85.50;;;;;;5053003;28;20021;-72
2022/07/08 01:25:55;;;;;;;4.18;1.70;;;23.00;86.00;;;;;;5053047;28;20056;-73
2022/07/08 01:28:21;;;;;;;5.55;1.67;;;22.90;85.60;;;;;;5053139;28;20021;-72
2022/07/08 01:30:47;;;;;;;6.25;2.08;;;23.00;85.40;;;;;;5053002;28;20029;-72
2022/07/08 01:33:13;;;;;;;4.85;1.40;;;23.10;85.60;;;;;;5052989;28;20527;-71
2022/07/08 01:35:39;;;;;;;5.32;1.60;;;23.20;85.10;;;;;;5053203;28;20024;-71
2022/07/08 01:38:04;;;;;;;4.20;1.70;;;23.20;85.00;;;;;;5052951;28;20013;-69
2022/07/08 01:40:30;;;;;;;6.07;1.77;;;23.20;84.30;;;;;;5053055;28;20052;-71
2022/07/08 01:42:56;;;;;;;4.07;1.63;;;23.10;84.50;;;;;;5052752;28;20047;-71
2022/07/08 01:45:21;;;;;;;6.45;1.73;;;23.20;84.00;;;;;;5052453;28;20051;-72
2022/07/08 01:47:47;;;;;;;4.03;1.40;;;23.30;83.60;;;;;;5052881;28;20158;-72
2022/07/08 01:50:13;;;;;;;5.03;1.60;;;23.30;82.90;;;;;;5052681;28;20366;-71
2022/07/08 01:52:38;;;;;;;3.95;1.58;;;23.30;82.70;;;;;;5052722;28;20419;-72
2022/07/08 01:55:05;;;;;;;5.22;1.73;;;23.20;82.60;;;;;;5052717;28;20021;-73
2022/07/08 01:57:31;;;;;;;5.07;1.70;;;23.20;82.40;;;;;;5052637;28;20523;-70
2022/07/08 01:59:57;;;;;;;4.95;1.33;;;23.20;81.70;;;;;;5052882;28;20060;-71
2022/07/08 02:02:23;;;;;;;6.70;1.52;;;23.20;81.60;;;;;;5056495;28;20028;-72
2022/07/08 02:04:49;;;;;;;4.40;1.45;;;23.30;81.10;;;;;;5056543;28;20044;-73
2022/07/08 02:07:16;;;;;;;3.58;1.42;;;23.30;80.70;;;;;;5056776;28;20021;-71
2022/07/08 02:09:42;;;;;;;5.78;1.60;;;23.20;80.10;;;;;;5056586;28;20051;-71
2022/07/08 02:12:20;;;;;;;6.10;1.70;;;23.20;80.50;;;;;;5056689;28;20071;-72
2022/07/08 02:15:06;;;;;;;5.28;1.45;;;23.20;80.60;;;;;;5038304;28;20028;-72
2022/07/08 02:17:42;;;;;;;4.45;1.63;;;23.30;79.70;;;;;;5056602;28;20097;-71
2022/07/08 02:20:11;;;;;;;5.03;1.70;;;23.20;80.40;;;;;;5056497;28;20028;-71
2022/07/08 02:22:37;;;;;;;5.88;1.80;;;23.10;80.80;;;;;;5056523;28;20025;-71
2022/07/08 02:25:03;;;;;;;5.10;1.63;;;23.20;80.60;;;;;;5056188;28;20040;-71
2022/07/08 02:27:29;;;;;;;8.18;1.88;;;23.20;80.60;;;;;;5056286;28;20025;-70
2022/07/08 02:29:55;;;;;;;4.20;1.50;;;23.20;79.90;;;;;;5056734;28;20031;-72
2022/07/08 02:32:21;;;;;;;7.28;1.80;;;23.20;79.90;;;;;;5056713;28;20032;-72
2022/07/08 02:34:46;;;;;;;6.40;1.60;;;23.30;79.50;;;;;;5038305;28;20111;-72
2022/07/08 02:37:13;;;;;;;6.45;1.67;;;23.20;79.40;;;;;;5056248;28;20025;-72
2022/07/08 02:39:39;;;;;;;6.13;1.88;;;23.10;79.30;;;;;;5056106;28;20032;-72
2022/07/08 02:42:05;;;;;;;4.10;1.52;;;23.10;79.60;;;;;;5056205;28;20028;-72
2022/07/08 02:44:31;;;;;;;5.07;1.77;;;23.10;79.50;;;;;;5055801;28;20029;-71
2022/07/08 02:46:57;;;;;;;5.15;1.70;;;23.20;79.60;;;;;;5038103;28;20029;-72
2022/07/08 02:49:23;;;;;;;7.28;2.22;;;23.10;80.00;;;;;;5056230;28;20397;-70
2022/07/08 02:51:48;;;;;;;4.32;1.75;;;23.20;80.10;;;;;;5056006;28;20021;-71
2022/07/08 02:54:14;;;;;;;5.82;1.75;;;23.20;79.90;;;;;;5055907;28;20017;-70
2022/07/08 02:56:40;;;;;;;5.00;1.65;;;23.10;79.40;;;;;;5055901;28;20120;-72
2022/07/08 02:59:06;;;;;;;5.68;1.80;;;23.10;79.10;;;;;;5055701;28;20409;-72
2022/07/08 03:01:32;;;;;;;7.47;1.90;;;23.20;79.30;;;;;;5055641;28;20428;-73
2022/07/08 03:03:57;;;;;;;7.70;2.10;;;23.10;79.40;;;;;;5055990;28;20079;-72
2022/07/08 03:06:23;;;;;;;5.78;1.90;;;23.10;79.50;;;;;;5055917;28;20029;-72
2022/07/08 03:08:49;;;;;;;6.25;1.98;;;23.10;79.60;;;;;;5055704;28;20163;-71
2022/07/08 03:11:15;;;;;;;4.47;1.85;;;23.10;79.80;;;;;;5055415;28;20104;-71
2022/07/08 03:13:40;;;;;;;8.93;2.50;;;23.10;79.70;;;;;;5055333;28;20033;-71
2022/07/08 03:16:07;;;;;;;6.13;2.00;;;23.10;80.00;;;;;;5037357;28;20025;-70
2022/07/08 03:18:35;;;;;;;6.30;2.00;;;23.10;79.70;;;;;;5055121;28;20033;-71
2022/07/08 03:21:03;;;;;;;5.72;2.17;;;23.00;79.40;;;;;;5055329;28;20013;-71
2022/07/08 03:23:30;;;;;;;8.43;2.80;;;23.00;80.30;;;;;;5055169;28;20481;-71
2022/07/08 03:25:55;;;;;;;7.40;2.40;;;22.90;79.70;;;;;;5055080;28;20017;-72
2022/07/08 03:28:21;;;;;;;5.78;2.22;;;22.80;79.90;;;;;;5054982;28;20036;-71
2022/07/08 03:30:47;;;;;;;7.55;2.40;;;22.80;80.00;;;;;;5055234;28;20032;-72
2022/07/08 03:33:12;;;;;;;6.50;2.45;;;22.70;80.60;;;;;;5037126;28;20122;-71
2022/07/08 03:35:38;;;;;;;8.23;2.33;;;22.70;80.40;;;;;;5054913;28;20382;-72
2022/07/08 03:38:04;;;;;;;7.80;2.88;;;22.70;80.40;;;;;;5055307;28;20056;-71
2022/07/08 03:43:14;;;;;;;7.13;2.30;;;22.60;81.40;;;;;;5054841;28;20032;-70
2022/07/08 03:45:39;;;;;;;9.43;2.65;;;22.70;80.70;;;;;;5054675;28;20033;-69
2022/07/08 03:48:05;;;;;;;6.13;2.50;;;22.50;81.10;;;;;;5054758;28;20100;-71
2022/07/08 03:50:31;;;;;;;6.32;2.75;;;22.50;81.50;;;;;;5054665;28;20033;-70
2022/07/08 03:52:57;;;;;;;15.57;3.30;;;22.50;81.50;;;;;;5054548;28;20469;-69
2022/07/08 03:55:24;;;;;;;7.72;3.00;;;22.60;81.90;;;;;;5054970;28;20103;-71
2022/07/08 03:57:50;;;;;;;10.02;2.88;;;22.60;82.50;;;;;;5054639;28;20031;-71
2022/07/08 04:00:16;;;;;;;8.38;2.85;;;22.60;81.80;;;;;;5054298;28;20045;-70
2022/07/08 04:02:42;;;;;;;5.75;2.85;;;22.60;81.60;;;;;;5054105;28;20090;-69
2022/07/08 04:05:07;;;;;;;7.57;3.13;;;22.60;82.00;;;;;;5054298;28;20041;-71
2022/07/08 04:07:34;;;;;;;15.15;2.92;;;22.60;81.60;;;;;;5054669;28;20036;-71
2022/07/08 04:10:00;;;;;;;6.20;2.42;;;22.60;81.70;;;;;;5054333;28;20040;-71
2022/07/08 04:12:26;;;;;;;6.63;3.08;;;22.70;81.60;;;;;;5053994;28;20029;-70
2022/07/08 04:14:52;;;;;;;8.93;3.30;;;22.70;81.80;;;;;;5053907;28;20084;-70
2022/07/08 04:17:17;;;;;;;9.15;3.80;;;22.60;81.60;;;;;;5054250;28;20111;-70
2022/07/08 04:19:43;;;;;;;6.63;2.70;;;22.60;81.90;;;;;;5054067;28;20021;-70
2022/07/08 04:22:09;;;;;;;9.30;3.28;;;22.50;81.80;;;;;;5054116;28;20025;-72
2022/07/08 04:24:34;;;;;;;7.05;2.70;;;22.40;82.10;;;;;;5053200;28;20485;-72
2022/07/08 04:27:00;;;;;;;5.80;2.90;;;22.40;82.10;;;;;;5054412;28;20094;-70
2022/07/08 04:29:26;;;;;;;7.60;2.85;;;22.50;82.30;;;;;;5054237;28;20426;-69
2022/07/08 04:31:52;;;;;;;7.70;2.92;;;22.50;82.50;;;;;;5054322;28;20458;-70
2022/07/08 04:34:17;;;;;;;9.20;2.95;;;22.50;82.60;;;;;;5055853;28;20324;-71
2022/07/08 04:36:43;;;;;;;6.10;2.88;;;22.70;82.10;;;;;;5054122;28;20207;-73
2022/07/08 04:39:09;;;;;;;6.28;2.75;;;22.80;81.50;;;;;;5053739;28;20412;-71
2022/07/08 04:41:36;;;;;;;9.45;3.03;;;22.70;81.00;;;;;;5053564;28;20103;-71
2022/07/08 04:44:02;;;;;;;6.53;2.95;;;22.70;81.30;;;;;;5053425;28;20021;-72
2022/07/08 04:46:27;;;;;;;8.57;3.00;;;22.60;81.90;;;;;;5053491;28;20041;-70
2022/07/08 04:48:53;;;;;;;8.02;3.72;;;22.60;82.00;;;;;;5053322;28;20551;-72
2022/07/08 04:51:19;;;;;;;9.50;3.42;;;22.60;82.10;;;;;;5053445;28;20025;-71
2022/07/08 04:53:44;;;;;;;7.97;3.00;;;22.60;82.40;;;;;;5053676;28;20029;-69
2022/07/08 04:56:10;;;;;;;7.32;3.25;;;22.70;81.70;;;;;;5053526;28;20033;-71
2022/07/08 04:58:36;;;;;;;6.80;3.10;;;22.70;82.20;;;;;;5053139;28;20074;-71
2022/07/08 05:01:02;;;;;;;6.82;3.60;;;22.80;82.00;;;;;;5053183;28;20057;-70
2022/07/08 05:03:28;;;;;;;10.52;3.30;;;22.80;82.00;;;;;;5053209;28;20033;-71
2022/07/08 05:05:54;;;;;;;9.10;3.15;;;22.70;81.00;;;;;;5053325;28;20044;-70
2022/07/08 05:08:20;;;;;;;9.98;3.47;;;22.70;80.80;;;;;;5053141;28;20531;-70
2022/07/08 05:10:46;;;;;;;7.18;3.25;;;22.80;80.90;;;;;;5053222;28;20056;-72
2022/07/08 05:13:12;;;;;;;8.68;2.70;;;22.80;80.60;;;;;;5053276;28;20473;-71
2022/07/08 05:15:38;;;;;;;6.35;2.88;;;22.90;80.60;;;;;;5052728;28;20025;-69
2022/07/08 05:18:04;;;;;;;8.27;3.30;;;23.10;79.90;;;;;;5053065;28;20051;-71
2022/07/08 05:20:30;;;;;;;8.45;3.60;;;23.30;79.20;;;;;;5052737;28;20025;-70
2022/07/08 05:22:56;;;;;;;9.40;2.92;;;23.50;77.80;;;;;;5052900;28;20123;-70
2022/07/08 05:25:22;;;;;;;4.82;2.45;;;23.80;77.20;;;;;;5052893;28;20472;-71
2022/07/08 05:27:47;;;;;;;5.53;2.40;;;24.00;75.60;;;;;;5052970;28;20021;-71
2022/07/08 05:30:13;;;;;;;8.63;2.45;;;24.30;74.40;;;;;;5052742;28;20025;-70
2022/07/08 05:32:40;;;;;;;5.05;2.33;;;24.70;73.40;;;;;;5052976;28;20055;-70
2022/07/08 05:35:07;;;;;;;9.45;2.45;;;25.10;71.70;;;;;;5053629;28;20017;-70
2022/07/08 05:37:35;;;;;;;9.05;2.47;;;25.40;70.90;;;;;;5056924;28;20017;-72
2022/07/08 05:40:00;;;;;;;10.30;2.47;;;25.60;69.20;;;;;;5057015;28;20032;-70
2022/07/08 05:42:26;;;;;;;5.55;2.70;;;25.70;68.10;;;;;;5057212;28;20095;-70
2022/07/08 05:44:52;;;;;;;8.50;2.35;;;25.90;67.60;;;;;;5056560;28;20041;-71
2022/07/08 05:47:18;;;;;;;4.30;2.10;;;26.20;66.20;;;;;;5057170;28;20111;-71
2022/07/08 05:49:44;;;;;;;6.60;2.55;;;26.50;64.40;;;;;;5038793;28;20025;-71
2022/07/08 05:52:10;;;;;;;4.45;2.00;;;26.70;64.30;;;;;;5056780;28;20067;-70
2022/07/08 05:54:37;;;;;;;4.63;2.15;;;27.00;63.10;;;;;;5056652;28;20462;-71
2022/07/08 05:57:03;;;;;;;6.35;2.40;;;27.30;62.10;;;;;;5056648;28;20036;-71
2022/07/08 05:59:29;;;;;;;4.60;2.10;;;27.40;60.60;;;;;;5056645;28;20049;-70
2022/07/08 06:01:55;;;;;;;8.60;2.35;;;27.60;60.00;;;;;;5056475;28;20031;-71
2022/07/08 06:04:21;;;;;;;6.57;2.17;;;27.70;59.40;;;;;;5056124;28;20017;-71
2022/07/08 06:06:47;;;;;;;6.68;2.30;;;27.80;59.10;;;;;;5056277;28;20028;-70
2022/07/08 06:09:13;;;;;;;4.95;2.08;;;28.10;58.50;;;;;;5056204;28;20421;-70
2022/07/08 06:11:39;;;;;;;6.97;2.03;;;28.20;57.40;;;;;;5056338;28;20024;-72
2022/07/08 06:14:04;;;;;;;5.13;1.85;;;28.20;57.40;;;;;;5056239;28;20033;-71
2022/07/08 06:16:30;;;;;;;7.07;2.30;;;28.20;56.50;;;;;;5055898;28;20122;-71
2022/07/08 06:18:56;;;;;;;8.35;1.92;;;28.20;56.20;;;;;;5056233;28;20454;-70
2022/07/08 06:21:22;;;;;;;4.75;2.75;;;28.20;55.80;;;;;;5038261;28;20036;-71
2022/07/08 06:23:47;;;;;;;6.85;2.38;;;28.50;55.30;;;;;;5056334;28;20169;-71
2022/07/08 06:26:13;;;;;;;11.02;1.80;;;28.60;54.90;;;;;;5055907;28;20453;-70
2022/07/08 06:28:39;;;;;;;5.35;2.20;;;28.60;54.50;;;;;;5055637;28;20031;-71
2022/07/08 06:31:05;;;;;;;7.18;2.00;;;28.60;54.40;;;;;;5037716;28;20384;-70
2022/07/08 06:33:30;;;;;;;3.28;1.65;;;28.70;53.90;;;;;;5055898;28;20480;-72
2022/07/08 06:35:56;;;;;;;3.10;1.52;;;28.80;53.70;;;;;;5055600;28;20381;-72
2022/07/08 06:38:22;;;;;;;5.35;1.60;;;28.60;53.40;;;;;;5037601;28;20033;-72
2022/07/08 06:40:47;;;;;;;5.95;1.77;;;28.50;53.40;;;;;;5037271;28;20031;-70
2022/07/08 06:43:13;;;;;;;6.50;1.58;;;28.50;53.50;;;;;;5055675;28;20470;-71
2022/07/08 06:45:39;;;;;;;7.28;2.03;;;28.50;53.30;;;;;;5055267;28;20040;-72
2022/07/08 06:48:05;;;;;;;5.65;2.65;;;28.60;53.30;;;;;;5055387;28;20021;-71
2022/07/08 06:50:31;;;;;;;6.45;1.80;;;28.70;52.90;;;;;;5055762;28;20017;-72
2022/07/08 06:52:57;;;;;;;8.15;1.70;;;28.90;52.00;;;;;;5055563;28;20053;-71
2022/07/08 06:55:23;;;;;;;5.78;1.80;;;29.10;51.90;;;;;;5055584;28;20048;-70
2022/07/08 06:57:49;;;;;;;8.30;2.00;;;29.20;51.60;;;;;;5055235;28;20033;-71
2022/07/08 07:00:15;;;;;;;8.80;1.70;;;29.20;51.30;;;;;;5055108;28;20059;-71
2022/07/08 07:02:41;;;;;;;8.00;1.95;;;29.20;50.70;;;;;;5037317;28;20029;-71
2022/07/08 07:05:08;;;;;;;22.33;2.63;;;29.20;50.70;;;;;;5055117;28;20044;-72
2022/07/08 07:07:34;;;;;;;6.47;1.90;;;29.30;50.50;;;;;;5055204;28;20017;-72
2022/07/08 07:10:00;;;;;;;11.10;2.15;;;29.30;50.00;;;;;;5055276;28;20319;-71
2022/07/08 07:12:25;;;;;;;10.48;1.80;;;29.10;49.60;;;;;;5055099;28;20021;-72
2022/07/08 07:14:51;;;;;;;7.38;2.03;;;29.10;49.60;;;;;;5055318;28;20052;-74
2022/07/08 07:17:21;;;;;;;7.47;1.98;;;29.10;49.40;;;;;;5055120;28;20049;-71
2022/07/08 07:19:47;;;;;;;6.82;1.95;;;29.10;48.50;;;;;;5055026;28;20070;-71
2022/07/08 07:22:14;;;;;;;8.80;2.40;;;29.10;49.70;;;;;;5036880;28;20028;-72
2022/07/08 07:24:40;;;;;;;8.52;1.90;;;29.10;49.60;;;;;;5054596;28;20036;-71
2022/07/08 07:27:06;;;;;;;11.50;2.00;;;29.10;49.50;;;;;;5054961;28;20029;-72
2022/07/08 07:29:32;;;;;;;8.48;1.60;;;29.00;49.30;;;;;;5054911;28;20351;-72
2022/07/08 07:31:58;;;;;;;5.03;1.45;;;29.10;49.10;;;;;;5055082;28;20029;-71
2022/07/08 07:34:24;;;;;;;9.18;1.80;;;29.10;48.50;;;;;;5054932;28;20345;-74
2022/07/08 07:36:50;;;;;;;4.50;1.60;;;29.30;48.30;;;;;;5054753;28;20103;-72
2022/07/08 07:39:15;;;;;;;7.63;1.73;;;29.30;48.20;;;;;;5054680;28;20025;-72
2022/07/08 07:41:41;;;;;;;7.03;2.00;;;29.20;48.50;;;;;;5036953;28;20057;-74
2022/07/08 07:44:07;;;;;;;5.95;1.63;;;29.30;48.20;;;;;;5055389;28;20389;-73
2022/07/08 07:46:33;;;;;;;6.00;1.42;;;29.20;49.40;;;;;;5054525;28;20103;-76
2022/07/08 07:49:00;;;;;;;4.18;1.33;;;29.10;47.50;;;;;;5054496;28;20025;-73
2022/07/08 07:51:25;;;;;;;3.58;1.52;;;29.10;47.80;;;;;;5054383;28;20488;-71
2022/07/08 07:53:52;;;;;;;7.35;1.55;;;29.00;47.60;;;;;;5036447;28;20021;-71
2022/07/08 07:56:18;;;;;;;4.63;1.35;;;29.00;47.40;;;;;;5036025;28;20431;-72
2022/07/08 07:58:45;;;;;;;4.38;1.30;;;28.90;47.20;;;;;;5053183;28;20067;-72
2022/07/08 08:01:11;;;;;;;3.17;1.20;;;28.90;47.60;;;;;;5054072;28;20041;-73
2022/07/08 08:03:36;;;;;;;3.33;1.45;;;28.80;46.60;;;;;;5053934;28;20021;-72
2022/07/08 08:06:04;;;;;;;4.18;1.20;;;28.80;46.50;;;;;;5036031;28;20048;-71
2022/07/08 08:08:31;;;;;;;4.15;1.20;;;28.80;47.60;;;;;;5054097;28;20032;-70
2022/07/08 08:10:58;;;;;;;3.95;1.10;;;28.80;46.10;;;;;;5054125;28;20067;-71
2022/07/08 08:13:24;;;;;;;6.70;1.08;;;28.80;46.60;;;;;;5035732;28;20017;-72
2022/07/08 08:15:50;;;;;;;4.18;1.15;;;28.70;46.20;;;;;;5053884;28;20059;-70
2022/07/08 08:18:16;;;;;;;8.27;1.50;;;28.70;47.00;;;;;;5035859;28;20123;-70
2022/07/08 08:20:42;;;;;;;3.53;1.00;;;28.70;45.90;;;;;;5053630;28;20037;-71
2022/07/08 08:23:09;;;;;;;4.45;1.38;;;28.70;45.80;;;;;;5053731;28;20529;-73
2022/07/08 08:25:35;;;;;;;5.78;1.20;;;28.70;46.80;;;;;;5035263;28;20047;-71
2022/07/08 08:28:02;;;;;;;3.95;0.98;;;28.70;46.40;;;;;;5035774;28;20021;-72
2022/07/08 08:30:27;;;;;;;7.90;1.25;;;28.60;44.90;;;;;;5053480;28;20162;-70
2022/07/08 08:32:53;;;;;;;6.15;1.10;;;28.60;44.40;;;;;;5053441;28;20095;-72
2022/07/08 08:35:19;;;;;;;6.88;1.05;;;28.60;44.20;;;;;;5035807;28;20025;-71
2022/07/08 08:37:45;;;;;;;2.47;1.02;;;28.60;44.30;;;;;;5053716;28;20021;-72
2022/07/08 08:40:12;;;;;;;3.40;1.20;;;28.50;45.30;;;;;;5053353;28;20025;-72
2022/07/08 08:42:39;;;;;;;4.72;1.17;;;28.50;43.60;;;;;;5053514;28;20389;-73
2022/07/08 08:45:06;;;;;;;4.60;1.10;;;28.50;44.20;;;;;;5035616;28;20057;-73
2022/07/08 08:47:34;;;;;;;6.55;1.05;;;28.50;45.40;;;;;;5053305;28;20048;-72
2022/07/08 08:50:53;;;;;;;6.10;1.00;;;28.50;45.10;;;;;;5035442;28;20036;-71
2022/07/08 08:52:53;;;;;;;2.90;1.40;;;28.50;46.50;;;;;;5052800;28;20029;-71
2022/07/08 08:55:27;;;;;;;6.47;1.17;;;28.50;44.50;;;;;;5053276;28;20025;-72
2022/07/08 08:58:04;;;;;;;4.20;1.23;;;28.60;43.20;;;;;;5036030;28;20028;-72
2022/07/08 09:00:31;;;;;;;2.83;0.80;;;28.60;43.60;;;;;;5052876;28;20555;-72
2022/07/08 09:02:58;;;;;;;3.80;1.02;;;28.60;42.80;;;;;;5053205;28;20091;-74
2022/07/08 09:05:25;;;;;;;1.48;0.80;;;28.60;42.80;;;;;;5053784;28;20032;-72
2022/07/08 09:07:52;;;;;;;7.28;1.20;;;28.60;42.60;;;;;;5054884;28;20086;-72
2022/07/08 09:10:18;;;;;;;5.20;1.30;;;28.60;42.80;;;;;;5053238;28;20082;-72
2022/07/08 09:13:10;;;;;;;2.97;0.95;;;28.60;43.10;;;;;;5053200;28;20021;-71
2022/07/08 09:15:44;;;;;;;4.70;1.17;;;28.60;42.50;;;;;;5052620;28;20051;-71
2022/07/08 09:18:18;;;;;;;6.30;1.10;;;28.70;42.60;;;;;;5052966;28;20508;-73
2022/07/08 09:20:44;;;;;;;;;;;28.70;42.30;;;;;;5053361;28;20107;-72
2022/07/08 09:23:16;;;;;;;3.78;0.82;;;28.80;42.30;;;;;;5052748;28;19966;-72
2022/07/08 09:25:42;;;;;;;3.35;0.88;;;28.90;40.70;;;;;;5052556;28;20040;-72
2022/07/08 09:28:08;;;;;;;6.47;0.98;;;28.90;40.70;;;;;;5052723;28;20021;-72
2022/07/08 09:30:34;;;;;;;1.90;0.90;;;29.00;40.30;;;;;;5034506;28;20377;-72
2022/07/08 09:33:02;;;;;;;5.07;2.38;;;29.00;39.70;;;;;;5052813;28;20025;-73
2022/07/08 09:35:39;;;;;;;6.57;1.67;;;29.00;39.90;;;;;;5034323;28;20020;-73
2022/07/08 09:38:07;;;;;;;3.25;1.00;;;29.00;40.40;;;;;;5018325;28;20054;-72
2022/07/08 09:40:34;;;;;;;4.97;0.93;;;29.10;40.50;;;;;;5052424;28;20095;-73
2022/07/08 09:43:11;;;;;;;2.20;1.00;;;29.10;40.10;;;;;;5034460;28;20060;-73
2022/07/08 09:45:37;;;;;;;2.47;0.90;;;29.10;40.10;;;;;;5052107;28;20033;-73
2022/07/08 09:48:07;;;;;;;5.80;1.08;;;29.20;41.50;;;;;;5052800;28;20362;-73
2022/07/08 09:50:38;;;;;;;2.65;1.00;;;29.20;40.80;;;;;;5052763;28;20155;-72
2022/07/08 09:53:23;;;;;;;4.93;0.93;;;29.20;41.60;;;;;;5052640;28;20175;-72
2022/07/08 09:55:53;;;;;;;6.03;1.10;;;29.20;41.20;;;;;;5052504;28;20082;-73
2022/07/08 09:58:21;;;;;;;3.40;1.02;;;29.30;42.10;;;;;;5052510;28;20032;-74
2022/07/08 10:00:49;;;;;;;7.35;1.10;;;29.30;41.70;;;;;;5052486;28;20379;-73
2022/07/08 10:03:14;;;;;;;3.33;1.05;;;29.40;40.80;;;;;;5052738;28;20420;-72
2022/07/08 10:05:41;;;;;;;9.02;1.25;;;29.40;40.70;;;;;;5051778;28;20029;-74
2022/07/08 10:08:08;;;;;;;5.65;1.40;;;29.50;40.90;;;;;;5034201;28;20401;-73
2022/07/08 10:10:35;;;;;;;5.78;1.08;;;29.50;41.00;;;;;;5052251;28;20025;-72
2022/07/08 10:13:03;;;;;;;3.40;0.90;;;29.60;41.50;;;;;;5034412;28;20029;-73
2022/07/08 10:15:33;;;;;;;6.20;1.15;;;29.70;40.40;;;;;;5052248;28;20029;-72
2022/07/08 10:18:20;;;;;;;2.88;1.05;;;29.70;41.80;;;;;;5052139;28;20447;-73
2022/07/08 10:20:50;;;;;;;4.82;1.00;;;29.80;40.30;;;;;;5052288;28;20025;-74
2022/07/08 10:23:32;;;;;;;3.33;1.10;;;29.70;41.00;;;;;;5038057;28;20074;-72
2022/07/08 10:25:59;;;;;;;6.75;0.85;;;29.80;41.20;;;;;;5055665;28;20135;-74
2022/07/08 10:28:39;;;;;;;2.75;1.08;;;29.80;39.50;;;;;;5037988;28;20079;-73
2022/07/08 10:31:24;;;;;;;5.50;1.20;;;29.90;39.80;;;;;;5055804;28;20033;-72
2022/07/08 10:33:51;;;;;;;3.17;1.25;;;29.90;39.60;;;;;;5055585;28;20033;-73
2022/07/08 10:36:22;;;;;;;2.88;0.90;;;30.00;38.90;;;;;;5055764;28;20021;-72
2022/07/08 10:38:48;;;;;;;3.60;0.80;;;30.00;38.50;;;;;;5037373;28;20036;-71
2022/07/08 10:41:22;;;;;;;4.25;1.27;;;29.90;38.60;;;;;;5055750;28;20021;-72
2022/07/08 10:43:57;;;;;;;2.92;0.80;;;30.10;38.30;;;;;;5055610;28;20449;-72
2022/07/08 10:46:27;;;;;;;3.05;1.00;;;30.10;38.50;;;;;;5037531;28;20392;-73
2022/07/08 10:48:57;;;;;;;3.85;1.10;;;30.20;38.70;;;;;;5055459;28;20036;-72
2022/07/08 10:51:24;;;;;;;4.50;1.08;;;30.20;38.70;;;;;;5055527;28;20104;-73
2022/07/08 10:53:52;;;;;;;5.43;1.15;;;30.20;38.70;;;;;;5055549;28;20053;-73
2022/07/08 10:56:49;;;;;;;7.05;1.40;;;30.20;39.00;;;;;;5055448;28;20033;-72
2022/07/08 10:59:21;;;;;;;5.75;1.10;;;30.40;38.70;;;;;;5055613;28;20551;-72
2022/07/08 11:01:52;;;;;;;2.77;0.97;;;30.40;37.90;;;;;;5055214;28;20028;-73
2022/07/08 11:04:33;;;;;;;4.38;1.02;;;30.60;37.50;;;;;;5055657;28;20036;-71
2022/07/08 11:07:32;;;;;;;3.47;0.93;;;30.70;37.50;;;;;;5055888;28;20049;-72
2022/07/08 11:10:13;;;;;;;2.47;0.73;;;30.70;37.90;;;;;;5055301;28;20028;-72
2022/07/08 11:12:45;;;;;;;5.93;1.20;;;30.80;37.00;;;;;;5037500;28;20466;-73
2022/07/08 11:15:19;;;;;;;3.58;1.08;;;30.90;36.80;;;;;;5055448;28;20044;-74
2022/07/08 11:17:48;;;;;;;2.25;0.80;;;31.00;36.50;;;;;;5056969;28;20054;-72
2022/07/08 11:20:16;;;;;;;3.65;0.90;;;31.00;36.80;;;;;;5058074;28;20029;-72
2022/07/08 11:22:46;;;;;;;6.70;0.88;;;31.00;36.20;;;;;;5038815;28;20497;-72
2022/07/08 11:25:14;;;;;;;9.63;1.40;;;31.00;36.00;;;;;;5055001;28;20470;-72
2022/07/08 11:27:40;;;;;;;4.80;0.80;;;31.00;36.10;;;;;;5055324;28;20100;-72
2022/07/08 11:30:09;;;;;;;4.18;0.80;;;31.00;36.00;;;;;;5055010;28;20032;-73
2022/07/08 11:32:37;;;;;;;4.05;0.75;;;31.00;35.80;;;;;;5053865;28;20025;-73
2022/07/08 11:35:03;;;;;;;5.18;1.10;;;31.00;35.60;;;;;;5054623;28;20092;-72
2022/07/08 11:37:32;;;;;;;1.75;0.50;;;30.90;35.80;;;;;;5054876;28;20102;-73
2022/07/08 11:40:00;;;;;;;6.20;1.10;;;31.00;35.60;;;;;;5055007;28;20025;-72
2022/07/08 11:42:26;;;;;;;5.90;0.70;;;31.00;35.20;;;;;;5036912;28;20032;-73
2022/07/08 11:44:52;;;;;;;3.90;0.82;;;30.90;35.60;;;;;;5054646;28;20104;-72
2022/07/08 11:47:19;;;;;;;3.20;0.80;;;31.00;35.10;;;;;;5054912;28;20021;-72
2022/07/08 11:49:47;;;;;;;1.40;0.68;;;31.10;34.80;;;;;;5037141;28;20071;-74
2022/07/08 11:52:18;;;;;;;3.63;0.85;;;31.20;34.30;;;;;;5054656;28;20029;-71
2022/07/08 11:54:48;;;;;;;3.92;0.70;;;31.20;34.00;;;;;;5036481;28;20021;-72
2022/07/08 11:57:19;;;;;;;2.25;0.82;;;31.30;33.50;;;;;;5054860;28;20029;-72
2022/07/08 11:59:46;;;;;;;1.80;0.70;;;31.30;33.40;;;;;;5054487;28;20233;-72
2022/07/08 12:02:13;;;;;;;8.98;0.88;;;31.20;33.50;;;;;;5036794;28;20021;-71
2022/07/08 12:04:44;;;;;;;4.38;1.10;;;31.20;33.50;;;;;;5054270;28;20062;-71
2022/07/08 12:07:39;;;;;;;2.65;0.80;;;31.20;33.60;;;;;;5054234;28;20073;-73
2022/07/08 12:10:05;;;;;;;5.43;0.90;;;31.20;32.80;;;;;;5027984;28;20370;-72
2022/07/08 12:12:33;;;;;;;6.75;1.00;;;31.30;33.50;;;;;;5054122;28;20167;-72
2022/07/08 12:15:14;;;;;;;6.38;1.48;;;31.30;33.00;;;;;;5053934;28;20101;-71
2022/07/08 12:17:40;;;;;;;3.03;0.60;;;31.30;32.40;;;;;;5054003;28;20021;-72
2022/07/08 12:20:06;;;;;;;1.92;0.50;;;31.20;32.80;;;;;;5054015;28;20051;-73
2022/07/08 12:22:45;;;;;;;2.50;0.57;;;31.20;32.80;;;;;;5054004;28;20029;-73
2022/07/08 12:25:12;;;;;;;3.95;0.80;;;31.20;32.00;;;;;;5053603;28;20044;-73
2022/07/08 12:27:37;;;;;;;3.78;0.70;;;31.30;33.30;;;;;;5053720;28;20425;-72
2022/07/08 12:30:05;;;;;;;5.93;0.93;;;31.30;32.90;;;;;;5053750;28;20025;-72
2022/07/08 12:32:38;;;;;;;8.57;0.82;;;31.40;32.30;;;;;;5053801;28;20082;-72
2022/07/08 12:35:05;;;;;;;4.75;0.63;;;31.40;32.60;;;;;;5053461;28;20021;-74
2022/07/08 12:37:31;;;;;;;3.35;0.60;;;31.40;32.20;;;;;;5053477;28;20021;-71
2022/07/08 12:39:57;;;;;;;3.50;0.82;;;31.40;32.50;;;;;;5053680;28;20024;-72
2022/07/08 12:42:26;;;;;;;1.42;0.63;;;31.50;31.30;;;;;;5053703;28;20020;-72
2022/07/08 12:44:52;;;;;;;4.45;0.98;;;31.40;32.20;;;;;;5052781;28;20090;-72
2022/07/08 12:47:18;;;;;;;5.70;0.88;;;31.50;32.00;;;;;;5053548;28;20025;-72
2022/07/08 12:49:46;;;;;;;2.17;0.60;;;31.60;31.60;;;;;;5053599;28;20466;-71